createdAt,value
2023-04-03T00:01:06.924Z,76.59
2023-04-03T00:03:34.557Z,76.63
2023-04-03T00:06:02.343Z,76.87
2023-04-03T00:08:32.067Z,76.84
2023-04-03T00:10:59.786Z,77.19
2023-04-03T00:13:26.771Z,77.27
2023-04-03T00:15:54.178Z,77.18
2023-04-03T00:18:22.369Z,77.32
2023-04-03T00:20:50.072Z,77.69
2023-04-03T00:23:17.281Z,77.41
2023-04-03T00:25:44.846Z,77.63
2023-04-03T00:28:12.432Z,77.96
2023-04-03T00:30:39.547Z,78.18
2023-04-03T00:33:07.307Z,78.24
2023-04-03T00:35:35.727Z,78.50
2023-04-03T00:38:02.710Z,78.81
2023-04-03T00:40:42.954Z,79.14
2023-04-03T00:43:14.527Z,79.06
2023-04-03T00:45:44.541Z,79.22
2023-04-03T00:48:16.795Z,79.36
2023-04-03T00:50:45.400Z,79.48
2023-04-03T00:53:17.278Z,79.57
2023-04-03T00:55:46.024Z,79.55
2023-04-03T00:58:13.700Z,79.70
2023-04-03T01:00:47.226Z,79.75
2023-04-03T01:03:14.475Z,79.75
2023-04-03T01:05:41.924Z,80.03
2023-04-03T01:08:09.227Z,80.13
2023-04-03T01:10:36.621Z,80.21
2023-04-03T01:13:18.949Z,80.34
2023-04-03T01:15:46.348Z,80.61
2023-04-03T01:18:13.265Z,80.88
2023-04-03T01:21:04.111Z,80.94
2023-04-03T01:23:50.853Z,80.99
2023-04-03T01:26:17.990Z,81.17
2023-04-03T01:28:44.942Z,81.40
2023-04-03T01:31:26.784Z,81.63
2023-04-03T01:33:56.295Z,81.67
2023-04-03T01:36:29.912Z,81.38
2023-04-03T01:39:00.311Z,81.06
2023-04-03T01:41:28.869Z,81.13
2023-04-03T01:44:02.849Z,81.21
2023-04-03T01:46:29.831Z,81.18
2023-04-03T01:48:56.891Z,81.04
2023-04-03T01:51:24.015Z,81.01
2023-04-03T01:53:50.932Z,81.02
2023-04-03T01:56:18.011Z,80.80
2023-04-03T01:58:46.017Z,81.09
2023-04-03T02:01:13.033Z,81.26
2023-04-03T02:03:40.485Z,81.42
2023-04-03T02:06:07.750Z,81.26
2023-04-03T02:08:34.758Z,80.82
2023-04-03T02:11:02.163Z,80.75
2023-04-03T02:13:29.292Z,80.41
2023-04-03T02:15:56.394Z,80.42
2023-04-03T02:18:23.524Z,80.65
2023-04-03T02:20:50.736Z,80.85
2023-04-03T02:23:18.040Z,81.26
2023-04-03T02:25:44.921Z,81.44
2023-04-03T02:28:12.165Z,81.33
2023-04-03T02:30:39.380Z,81.43
2023-04-03T02:33:06.699Z,81.43
2023-04-03T02:35:34.100Z,81.12
2023-04-03T02:38:01.478Z,81.36
2023-04-03T02:40:28.443Z,81.76
2023-04-03T02:42:55.564Z,81.90
2023-04-03T02:45:24.321Z,81.97
2023-04-03T02:47:51.257Z,82.26
2023-04-03T02:50:18.210Z,82.30
2023-04-03T02:52:45.163Z,82.30
2023-04-03T02:55:15.626Z,82.62
2023-04-03T02:57:43.665Z,82.73
2023-04-03T03:00:11.042Z,82.60
2023-04-03T03:02:38.045Z,82.80
2023-04-03T03:05:05.807Z,83.13
2023-04-03T03:07:33.254Z,83.10
2023-04-03T03:10:00.599Z,83.44
2023-04-03T03:12:27.511Z,83.27
2023-04-03T03:14:56.559Z,83.55
2023-04-03T03:17:23.773Z,83.54
2023-04-03T03:19:50.878Z,83.50
2023-04-03T03:22:18.120Z,83.75
2023-04-03T03:24:45.341Z,83.69
2023-04-03T03:27:13.192Z,83.75
2023-04-03T03:29:40.325Z,84.02
2023-04-03T03:32:07.557Z,83.94
2023-04-03T03:34:35.014Z,83.96
2023-04-03T03:37:01.909Z,84.11
2023-04-03T03:39:30.424Z,84.07
2023-04-03T03:41:57.567Z,84.09
2023-04-03T03:44:24.762Z,84.52
2023-04-03T03:46:53.244Z,84.40
2023-04-03T03:49:20.425Z,84.15
2023-04-03T03:51:48.014Z,84.12
2023-04-03T03:54:15.368Z,84.19
2023-04-03T03:56:42.704Z,84.44
2023-04-03T03:59:13.610Z,84.74
2023-04-03T04:01:41.074Z,84.66
2023-04-03T04:04:08.806Z,84.76
2023-04-03T04:06:36.792Z,84.76
2023-04-03T04:09:06.424Z,84.90
2023-04-03T04:11:34.504Z,85.13
2023-04-03T04:14:01.999Z,85.06
2023-04-03T04:16:30.389Z,84.85
2023-04-03T04:19:01.109Z,84.76
2023-04-03T04:21:28.429Z,84.59
2023-04-03T04:23:55.438Z,84.58
2023-04-03T04:26:23.373Z,84.46
2023-04-03T04:28:50.432Z,84.46
2023-04-03T04:31:19.248Z,84.06
2023-04-03T04:33:46.683Z,84.16
2023-04-03T04:36:15.957Z,84.16
2023-04-03T04:38:45.574Z,84.02
2023-04-03T04:41:13.028Z,83.84
2023-04-03T04:43:41.065Z,83.86
2023-04-03T04:46:13.253Z,83.51
2023-04-03T04:48:45.883Z,83.50
2023-04-03T04:51:13.981Z,83.10
2023-04-03T04:53:42.140Z,82.86
2023-04-03T04:56:11.221Z,82.64
2023-04-03T04:58:39.801Z,82.10
2023-04-03T05:01:10.639Z,81.77
2023-04-03T05:03:45.523Z,81.44
2023-04-03T05:06:12.577Z,81.00
2023-04-03T05:08:39.510Z,80.79
2023-04-03T05:11:07.524Z,80.38
2023-04-03T05:13:35.090Z,80.38
2023-04-03T05:16:02.401Z,80.20
2023-04-03T05:18:29.672Z,80.12
2023-04-03T05:20:59.821Z,79.78
2023-04-03T05:23:27.516Z,79.35
2023-04-03T05:25:56.880Z,78.73
2023-04-03T05:28:24.114Z,78.26
2023-04-03T05:30:59.463Z,78.08
2023-04-03T05:33:31.952Z,77.38
2023-04-03T05:36:05.990Z,77.42
2023-04-03T05:38:37.203Z,77.10
2023-04-03T05:41:04.858Z,76.68
2023-04-03T05:43:32.604Z,76.16
2023-04-03T05:45:59.578Z,75.43
2023-04-03T05:48:28.556Z,74.84
2023-04-03T05:50:57.128Z,75.04
2023-04-03T05:53:29.755Z,75.50
2023-04-03T05:55:59.957Z,75.23
2023-04-03T05:58:27.679Z,75.31
2023-04-03T06:00:54.723Z,74.27
2023-04-03T06:03:22.441Z,74.52
2023-04-03T06:05:49.816Z,74.11
2023-04-03T06:08:16.942Z,74.11
2023-04-03T06:10:43.986Z,73.84
2023-04-03T06:13:12.116Z,73.76
2023-04-03T06:15:40.672Z,73.63
2023-04-03T06:18:09.746Z,73.47
2023-04-03T06:20:37.240Z,73.12
2023-04-03T06:23:08.194Z,72.66
2023-04-03T06:25:38.018Z,70.83
2023-04-03T06:28:13.569Z,70.57
2023-04-03T06:30:41.411Z,70.35
2023-04-03T06:33:08.442Z,70.15
2023-04-03T06:35:37.593Z,69.04
2023-04-03T06:38:10.316Z,68.47
2023-04-03T06:40:37.653Z,68.06
2023-04-03T06:43:05.150Z,68.04
2023-04-03T06:45:36.167Z,67.70
2023-04-03T06:48:09.205Z,67.46
2023-04-03T06:50:36.447Z,66.89
2023-04-03T06:53:03.432Z,66.16
2023-04-03T06:55:30.647Z,65.14
2023-04-03T06:57:57.694Z,64.72
2023-04-03T07:00:24.753Z,64.95
2023-04-03T07:02:52.604Z,64.41
2023-04-03T07:05:19.519Z,64.42
2023-04-03T07:07:47.021Z,64.05
2023-04-03T07:10:13.837Z,64.25
2023-04-03T07:12:40.998Z,62.74
2023-04-03T07:15:08.458Z,62.60
2023-04-03T07:17:36.905Z,62.79
2023-04-03T07:20:04.931Z,61.03
2023-04-03T07:22:32.297Z,61.42
2023-04-03T07:25:00.166Z,60.71
2023-04-03T07:27:27.466Z,61.28
2023-04-03T07:29:55.592Z,61.19
2023-04-03T07:32:23.572Z,60.48
2023-04-03T07:34:50.675Z,59.52
2023-04-03T07:37:19.032Z,59.52
2023-04-03T07:39:46.147Z,59.55
2023-04-03T07:42:14.094Z,59.90
2023-04-03T07:44:41.437Z,58.30
2023-04-03T07:47:08.959Z,58.25
2023-04-03T07:49:39.033Z,57.74
2023-04-03T07:52:06.585Z,57.57
2023-04-03T07:54:33.466Z,58.01
2023-04-03T07:57:00.497Z,58.30
2023-04-03T07:59:27.453Z,57.54
2023-04-03T08:01:54.535Z,57.32
2023-04-03T08:04:21.659Z,57.30
2023-04-03T08:06:48.738Z,54.91
2023-04-03T08:09:16.925Z,56.14
2023-04-03T08:11:45.353Z,57.44
2023-04-03T08:14:17.928Z,57.11
2023-04-03T08:16:47.092Z,55.63
2023-04-03T08:19:25.598Z,56.23
2023-04-03T08:21:55.724Z,54.75
2023-04-03T08:24:22.809Z,55.88
2023-04-03T08:26:49.789Z,55.92
2023-04-03T08:29:16.915Z,55.92
2023-04-03T08:31:44.294Z,56.12
2023-04-03T08:34:12.515Z,53.95
2023-04-03T08:36:39.752Z,53.58
2023-04-03T08:39:07.475Z,53.46
2023-04-03T08:41:43.405Z,53.19
2023-04-03T08:44:19.227Z,54.92
2023-04-03T08:47:13.628Z,55.80
2023-04-03T08:49:44.277Z,55.44
2023-04-03T08:52:16.121Z,55.67
2023-04-03T08:54:50.993Z,53.64
2023-04-03T08:57:27.244Z,53.10
2023-04-03T08:59:54.328Z,53.38
2023-04-03T09:02:34.717Z,53.79
2023-04-03T09:05:12.288Z,53.29
2023-04-03T09:08:14.431Z,53.20
2023-04-03T09:10:42.836Z,53.49
2023-04-03T09:13:20.355Z,52.11
2023-04-03T09:15:47.474Z,51.77
2023-04-03T09:18:40.921Z,52.74
2023-04-03T09:21:26.615Z,50.41
2023-04-03T09:23:59.117Z,49.99
2023-04-03T09:26:44.603Z,51.46
2023-04-03T09:29:18.142Z,50.35
2023-04-03T09:31:47.250Z,48.85
2023-04-03T09:34:31.749Z,49.21
2023-04-03T09:37:09.844Z,50.48
2023-04-03T09:39:57.389Z,50.64
2023-04-03T09:42:25.881Z,51.01
2023-04-03T09:45:01.368Z,49.87
2023-04-03T09:47:36.216Z,47.63
2023-04-03T09:50:11.251Z,49.01
2023-04-03T09:52:39.419Z,49.80
2023-04-03T09:55:28.012Z,49.70
2023-04-03T09:57:59.872Z,47.55
2023-04-03T10:00:32.171Z,45.19
2023-04-03T10:02:59.965Z,47.21
2023-04-03T10:05:36.472Z,48.13
2023-04-03T10:08:15.625Z,48.86
2023-04-03T10:10:43.753Z,49.18
2023-04-03T10:13:21.010Z,48.42
2023-04-03T10:16:08.185Z,49.32
2023-04-03T10:18:55.844Z,49.41
2023-04-03T10:21:45.642Z,50.63
2023-04-03T10:24:30.753Z,49.84
2023-04-03T10:27:35.754Z,50.65
2023-04-03T10:30:40.843Z,50.52
2023-04-03T10:33:42.276Z,51.46
2023-04-03T10:36:27.440Z,51.47
2023-04-03T10:39:22.263Z,52.11
2023-04-03T10:42:17.605Z,52.84
2023-04-03T10:44:57.440Z,53.13
2023-04-03T10:47:49.322Z,53.70
2023-04-03T10:50:28.384Z,52.19
2023-04-03T10:53:04.631Z,52.25
2023-04-03T10:55:53.707Z,51.89
2023-04-03T10:58:30.350Z,52.20
2023-04-03T11:01:07.925Z,52.69
2023-04-03T11:03:41.874Z,52.44
2023-04-03T11:06:13.460Z,52.16
2023-04-03T11:08:57.866Z,51.91
2023-04-03T11:11:33.469Z,53.33
2023-04-03T11:14:17.219Z,54.49
2023-04-03T11:16:54.112Z,54.44
2023-04-03T11:19:55.935Z,54.85
2023-04-03T11:22:25.080Z,55.86
2023-04-03T11:25:14.465Z,57.36
2023-04-03T11:27:44.736Z,58.10
2023-04-03T11:30:21.033Z,59.25
2023-04-03T11:33:21.506Z,60.15
2023-04-03T11:35:54.457Z,61.06
2023-04-03T11:38:37.403Z,61.59
2023-04-03T11:41:07.830Z,62.50
2023-04-03T11:43:40.890Z,63.44
2023-04-03T11:46:09.582Z,63.39
2023-04-03T11:48:36.528Z,63.44
2023-04-03T11:51:29.403Z,64.17
2023-04-03T11:54:38.722Z,64.43
2023-04-03T11:57:46.196Z,65.03
2023-04-03T12:00:50.986Z,65.48
2023-04-03T12:03:24.146Z,65.93
2023-04-03T12:06:18.844Z,66.55
2023-04-03T12:08:48.472Z,67.48
2023-04-03T12:11:29.836Z,67.99
2023-04-03T12:13:56.844Z,69.14
2023-04-03T12:16:23.976Z,69.91
2023-04-03T12:18:54.033Z,70.42
2023-04-03T12:21:52.960Z,70.98
2023-04-03T12:24:26.408Z,71.67
2023-04-03T12:27:12.441Z,72.25
2023-04-03T12:29:48.689Z,72.67
2023-04-03T12:32:34.438Z,73.55
2023-04-03T12:35:10.446Z,74.08
2023-04-03T12:38:09.427Z,74.89
2023-04-03T12:41:14.082Z,75.95
2023-04-03T12:44:00.677Z,76.41
2023-04-03T12:46:53.853Z,77.11
2023-04-03T12:49:36.654Z,77.52
2023-04-03T12:52:20.701Z,77.99
2023-04-03T12:54:49.533Z,78.32
2023-04-03T12:57:21.580Z,78.93
2023-04-03T12:59:49.591Z,79.30
2023-04-03T13:02:24.880Z,79.85
2023-04-03T13:04:54.127Z,80.35
2023-04-03T13:07:29.656Z,81.15
2023-04-03T13:09:58.733Z,81.80
2023-04-03T13:12:26.006Z,82.22
2023-04-03T13:14:59.152Z,82.69
2023-04-03T13:17:26.776Z,83.25
2023-04-03T13:19:54.459Z,83.55
2023-04-03T13:22:34.529Z,84.19
2023-04-03T13:25:08.380Z,84.63
2023-04-03T13:27:36.205Z,85.19
2023-04-03T13:30:04.890Z,85.29
2023-04-03T13:32:33.382Z,85.44
2023-04-03T13:35:15.703Z,85.58
2023-04-03T13:37:59.044Z,86.26
2023-04-03T13:40:32.354Z,86.78
2023-04-03T13:43:20.751Z,86.93
2023-04-03T13:46:02.392Z,87.16
2023-04-03T13:48:37.201Z,87.55
2023-04-03T13:51:17.712Z,87.90
2023-04-03T13:53:51.659Z,87.91
2023-04-03T13:56:38.638Z,88.04
2023-04-03T13:59:17.841Z,88.04
2023-04-03T14:02:07.915Z,88.22
2023-04-03T14:04:38.114Z,88.41
2023-04-03T14:07:05.390Z,88.44
2023-04-03T14:09:33.057Z,88.66
2023-04-03T14:12:07.716Z,88.71
2023-04-03T14:14:39.473Z,88.78
2023-04-03T14:17:24.663Z,88.87
2023-04-03T14:19:53.835Z,89.18
2023-04-03T14:22:32.625Z,89.42
2023-04-03T14:24:59.968Z,89.56
2023-04-03T14:27:35.502Z,89.76
2023-04-03T14:30:05.013Z,89.94
2023-04-03T14:32:32.299Z,90.00
2023-04-03T14:35:00.029Z,89.98
2023-04-03T14:37:30.276Z,90.17
2023-04-03T14:39:59.219Z,90.43
2023-04-03T14:42:32.967Z,90.53
2023-04-03T14:45:02.237Z,90.47
2023-04-03T14:47:32.136Z,90.58
2023-04-03T14:50:05.039Z,90.62
2023-04-03T14:52:35.742Z,90.54
2023-04-03T14:55:05.729Z,90.78
2023-04-03T14:57:33.424Z,90.90
2023-04-03T15:00:01.818Z,90.68
2023-04-03T15:02:38.955Z,90.59
2023-04-03T15:05:09.884Z,90.41
2023-04-03T15:07:41.179Z,90.60
2023-04-03T15:10:16.399Z,90.38
2023-04-03T15:12:44.258Z,90.52
2023-04-03T15:15:11.651Z,90.63
2023-04-03T15:17:39.075Z,90.63
2023-04-03T15:20:18.793Z,90.72
2023-04-03T15:22:46.742Z,90.65
2023-04-03T15:25:13.770Z,90.61
2023-04-03T15:27:44.173Z,90.51
2023-04-03T15:30:18.343Z,90.55
2023-04-03T15:32:45.587Z,90.39
2023-04-03T15:35:12.563Z,90.65
2023-04-03T15:37:39.824Z,90.56
2023-04-03T15:40:09.577Z,90.66
2023-04-03T15:42:36.765Z,90.73
2023-04-03T15:45:04.043Z,91.10
2023-04-03T15:47:31.278Z,90.90
2023-04-03T15:49:59.387Z,91.29
2023-04-03T15:52:26.494Z,91.39
2023-04-03T15:54:53.611Z,91.70
2023-04-03T15:57:20.919Z,91.91
2023-04-03T15:59:48.059Z,92.24
2023-04-03T16:02:15.410Z,92.25
2023-04-03T16:04:42.721Z,92.53
2023-04-03T16:07:10.004Z,92.84
2023-04-03T16:09:37.441Z,92.97
2023-04-03T16:12:05.010Z,93.21
2023-04-03T16:14:32.586Z,93.35
2023-04-03T16:17:03.309Z,93.45
2023-04-03T16:19:31.414Z,93.74
2023-04-03T16:21:58.951Z,93.95
2023-04-03T16:24:26.288Z,94.06
2023-04-03T16:26:54.548Z,94.26
2023-04-03T16:29:21.774Z,94.55
2023-04-03T16:31:49.341Z,94.38
2023-04-03T16:34:17.077Z,94.88
2023-04-03T16:36:44.508Z,94.78
2023-04-03T16:39:11.730Z,94.76
2023-04-03T16:41:39.112Z,94.93
2023-04-03T16:44:08.479Z,95.08
2023-04-03T16:46:35.974Z,95.27
2023-04-03T16:49:05.136Z,95.26
2023-04-03T16:51:33.117Z,95.40
2023-04-03T16:54:01.016Z,95.36
2023-04-03T16:56:28.392Z,95.64
2023-04-03T16:58:55.577Z,95.77
2023-04-03T17:01:25.609Z,95.70
2023-04-03T17:03:52.765Z,96.00
2023-04-03T17:06:22.960Z,96.14
2023-04-03T17:08:52.534Z,96.02
2023-04-03T17:11:31.363Z,96.10
2023-04-03T17:13:58.373Z,95.85
2023-04-03T17:16:37.767Z,95.83
2023-04-03T17:19:05.975Z,95.94
2023-04-03T17:21:37.213Z,95.82
2023-04-03T17:24:09.494Z,95.59
2023-04-03T17:26:45.558Z,95.28
2023-04-03T17:29:15.644Z,95.38
2023-04-03T17:31:48.450Z,95.30
2023-04-03T17:34:15.711Z,95.30
2023-04-03T17:36:42.968Z,95.23
2023-04-03T17:39:10.567Z,95.21
2023-04-03T17:41:37.711Z,95.05
2023-04-03T17:44:07.620Z,94.89
2023-04-03T17:46:35.451Z,94.98
2023-04-03T17:49:04.678Z,94.67
2023-04-03T17:51:34.617Z,94.84
2023-04-03T17:54:20.502Z,94.74
2023-04-03T17:56:48.339Z,94.73
2023-04-03T17:59:16.971Z,94.79
2023-04-03T18:01:49.377Z,94.62
2023-04-03T18:04:16.923Z,94.67
2023-04-03T18:06:48.545Z,94.69
2023-04-03T18:09:19.846Z,94.63
2023-04-03T18:11:48.784Z,94.60
2023-04-03T18:14:19.176Z,94.79
2023-04-03T18:16:46.351Z,94.53
2023-04-03T18:21:46.078Z,94.53
2023-04-03T18:24:15.878Z,94.58
2023-04-03T18:26:48.740Z,94.49
2023-04-03T18:29:16.599Z,94.64
2023-04-03T18:31:48.084Z,94.69
2023-04-03T18:34:15.439Z,94.56
2023-04-03T18:36:42.354Z,94.46
2023-04-03T18:39:09.586Z,94.67
2023-04-03T18:41:38.221Z,94.75
2023-04-03T18:44:11.785Z,94.84
2023-04-03T18:46:40.438Z,94.93
2023-04-03T18:49:09.120Z,94.85
2023-04-03T18:51:39.134Z,94.81
2023-04-03T18:54:09.902Z,95.00
2023-04-03T18:56:37.835Z,94.87
2023-04-03T18:59:05.687Z,94.90
2023-04-03T19:01:36.345Z,94.97
2023-04-03T19:04:04.055Z,94.87
2023-04-03T19:06:33.184Z,94.63
2023-04-03T19:09:00.824Z,94.59
2023-04-03T19:11:30.069Z,94.76
2023-04-03T19:14:14.617Z,94.99
2023-04-03T19:16:44.670Z,95.08
2023-04-03T19:19:12.686Z,95.36
2023-04-03T19:21:41.419Z,95.88
2023-04-03T19:24:12.658Z,95.73
2023-04-03T19:26:40.990Z,95.94
2023-04-03T19:29:08.340Z,95.97
2023-04-03T19:31:37.363Z,96.04
2023-04-03T19:34:05.407Z,96.13
2023-04-03T19:36:33.274Z,96.41
2023-04-03T19:39:00.162Z,96.18
2023-04-03T19:41:30.226Z,96.46
2023-04-03T19:43:58.063Z,96.42
2023-04-03T19:46:27.093Z,96.53
2023-04-03T19:48:54.565Z,96.83
2023-04-03T19:51:21.853Z,96.80
2023-04-03T19:53:48.867Z,96.82
2023-04-03T19:56:17.550Z,96.71
2023-04-03T19:58:45.026Z,96.76
2023-04-03T20:01:12.102Z,96.67
2023-04-03T20:03:40.034Z,96.69
2023-04-03T20:06:07.020Z,96.65
2023-04-03T20:08:35.086Z,96.95
2023-04-03T20:11:02.089Z,96.85
2023-04-03T20:13:30.329Z,96.80
2023-04-03T20:15:58.417Z,96.69
2023-04-03T20:18:26.686Z,96.81
2023-04-03T20:21:00.431Z,96.93
2023-04-03T20:23:28.775Z,97.11
2023-04-03T20:26:09.399Z,97.07
2023-04-03T20:28:38.530Z,96.97
2023-04-03T20:31:06.704Z,96.97
2023-04-03T20:33:33.993Z,96.99
2023-04-03T20:36:02.053Z,97.09
2023-04-03T20:38:29.110Z,97.23
2023-04-03T20:40:56.177Z,97.19
2023-04-03T20:43:23.762Z,97.61
2023-04-03T20:45:51.001Z,97.43
2023-04-03T20:48:18.517Z,97.26
2023-04-03T20:50:46.498Z,97.31
2023-04-03T20:53:15.041Z,97.14
2023-04-03T20:55:42.461Z,97.24
2023-04-03T20:58:09.614Z,97.29
2023-04-03T21:00:37.886Z,97.17
2023-04-03T21:03:06.287Z,97.27
2023-04-03T21:05:36.954Z,97.16
2023-04-03T21:08:42.451Z,97.20
2023-04-03T21:11:47.362Z,97.48
2023-04-03T21:14:52.257Z,97.70
2023-04-03T21:17:19.346Z,97.78
2023-04-03T21:19:46.642Z,97.93
2023-04-03T21:22:16.192Z,97.74
2023-04-03T21:24:44.515Z,98.03
2023-04-03T21:27:11.670Z,97.96
2023-04-03T21:29:38.985Z,97.95
2023-04-03T21:32:06.361Z,97.96
2023-04-03T21:34:34.016Z,97.83
2023-04-03T21:37:04.059Z,97.77
2023-04-03T21:39:31.959Z,97.68
2023-04-03T21:41:58.976Z,97.78
2023-04-03T21:44:27.291Z,97.79
2023-04-03T21:46:54.578Z,97.68
2023-04-03T21:49:24.198Z,97.71
2023-04-03T21:51:52.544Z,97.87
2023-04-03T21:54:19.882Z,97.43
2023-04-03T21:56:51.745Z,97.84
2023-04-03T21:59:19.100Z,97.77
2023-04-03T22:01:46.158Z,97.80
2023-04-03T22:04:13.197Z,97.77
2023-04-03T22:06:40.185Z,97.87
2023-04-03T22:09:08.332Z,97.70
2023-04-03T22:11:35.608Z,97.39
2023-04-03T22:14:02.605Z,97.64
2023-04-03T22:16:29.906Z,97.57
2023-04-03T22:18:59.312Z,97.51
2023-04-03T22:21:26.701Z,97.61
2023-04-03T22:23:54.537Z,97.49
2023-04-03T22:26:21.863Z,97.59
2023-04-03T22:28:48.972Z,97.40
2023-04-03T22:31:17.167Z,97.74
2023-04-03T22:33:45.200Z,97.59
2023-04-03T22:36:14.162Z,97.62
2023-04-03T22:38:44.315Z,97.43
2023-04-03T22:41:11.897Z,97.43
2023-04-03T22:43:39.613Z,97.37
2023-04-03T22:46:11.098Z,97.36
2023-04-03T22:48:42.423Z,97.49
2023-04-03T22:51:09.848Z,97.69
2023-04-03T22:53:37.675Z,97.82
2023-04-03T22:56:10.965Z,97.71
2023-04-03T22:58:38.205Z,97.86
2023-04-03T23:01:05.904Z,98.07
2023-04-03T23:03:34.082Z,98.33
2023-04-03T23:06:04.262Z,98.21
2023-04-03T23:08:32.605Z,98.22
2023-04-03T23:11:00.139Z,98.46
2023-04-03T23:13:27.870Z,98.33
2023-04-03T23:15:59.455Z,98.47
2023-04-03T23:18:29.907Z,98.70
2023-04-03T23:20:59.202Z,98.75
2023-04-03T23:23:26.183Z,98.86
2023-04-03T23:25:57.296Z,98.96
2023-04-03T23:28:24.875Z,99.12
2023-04-03T23:31:02.957Z,98.98
2023-04-03T23:33:31.722Z,99.00
2023-04-03T23:36:00.387Z,99.07
2023-04-03T23:38:27.669Z,99.00
2023-04-03T23:40:54.580Z,99.17
2023-04-03T23:43:21.744Z,99.23
2023-04-03T23:45:48.680Z,99.19
2023-04-03T23:48:15.894Z,99.29
2023-04-03T23:50:43.930Z,99.37
2023-04-03T23:53:14.805Z,99.66
2023-04-03T23:55:42.100Z,99.57
2023-04-03T23:58:09.204Z,99.94
